createdAt,value
2022-08-05T00:01:01.017Z,23.30
2022-08-05T00:04:22.238Z,23.20
2022-08-05T00:08:00.169Z,23.10
2022-08-05T00:10:51.972Z,23.00
2022-08-05T00:13:56.851Z,22.90
2022-08-05T00:17:02.938Z,22.90
2022-08-05T00:20:10.654Z,22.80
2022-08-05T00:23:16.186Z,22.80
2022-08-05T00:26:22.103Z,22.80
2022-08-05T00:29:37.606Z,22.76
2022-08-05T00:32:43.090Z,22.70
2022-08-05T00:35:47.803Z,22.70
2022-08-05T00:38:52.681Z,22.70
2022-08-05T00:41:57.418Z,22.60
2022-08-05T00:45:02.987Z,22.60
2022-08-05T00:48:09.307Z,22.60
2022-08-05T00:51:50.572Z,22.50
2022-08-05T00:54:41.084Z,22.50
2022-08-05T00:57:55.578Z,22.50
2022-08-05T01:01:08.528Z,22.40
2022-08-05T01:04:15.919Z,22.40
2022-08-05T01:07:31.636Z,22.40
2022-08-05T01:10:52.412Z,22.42
2022-08-05T01:14:08.496Z,22.40
2022-08-05T01:17:27.296Z,22.40
2022-08-05T01:20:59.232Z,22.40
2022-08-05T01:24:35.489Z,22.40
2022-08-05T01:28:15.727Z,22.40
2022-08-05T01:31:32.053Z,22.30
2022-08-05T01:34:43.093Z,22.30
2022-08-05T01:37:55.220Z,22.30
2022-08-05T01:41:02.917Z,22.20
2022-08-05T01:44:11.232Z,22.16
2022-08-05T01:47:19.890Z,22.10
2022-08-05T01:50:32.555Z,22.00
2022-08-05T01:53:58.126Z,22.00
2022-08-05T01:58:13.192Z,21.90
2022-08-05T02:00:36.727Z,21.80
2022-08-05T02:03:46.510Z,21.80
2022-08-05T02:06:51.762Z,21.70
2022-08-05T02:09:56.396Z,21.60
2022-08-05T02:13:16.709Z,21.60
2022-08-05T02:16:27.592Z,21.50
2022-08-05T02:19:47.063Z,21.50
2022-08-05T02:22:59.979Z,21.40
2022-08-05T02:26:10.048Z,21.40
2022-08-05T02:29:26.049Z,21.36
2022-08-05T02:32:51.589Z,21.40
2022-08-05T02:36:01.247Z,21.40
2022-08-05T02:39:09.564Z,21.40
2022-08-05T02:42:26.106Z,21.50
2022-08-05T02:45:52.006Z,21.50
2022-08-05T02:48:59.429Z,21.50
2022-08-05T02:52:07.596Z,21.50
2022-08-05T02:55:13.893Z,21.40
2022-08-05T02:58:26.792Z,21.40
2022-08-05T03:01:31.289Z,21.40
2022-08-05T03:04:39.145Z,21.40
2022-08-05T03:08:04.482Z,21.40
2022-08-05T03:11:57.170Z,21.40
2022-08-05T03:14:46.319Z,21.36
2022-08-05T03:17:56.030Z,21.30
2022-08-05T03:21:02.583Z,21.30
2022-08-05T03:24:09.866Z,21.30
2022-08-05T03:27:19.100Z,21.30
2022-08-05T03:30:33.347Z,21.24
2022-08-05T03:33:50.927Z,21.20
2022-08-05T03:36:57.280Z,21.20
2022-08-05T03:40:06.941Z,21.20
2022-08-05T03:44:09.535Z,21.20
2022-08-05T03:46:42.576Z,21.20
2022-08-05T03:49:51.536Z,21.20
2022-08-05T03:55:50.630Z,21.20
2022-08-05T03:56:36.994Z,21.22
2022-08-05T03:59:54.841Z,21.30
2022-08-05T04:03:05.897Z,21.32
2022-08-05T04:06:11.350Z,21.40
2022-08-05T04:09:25.870Z,21.40
2022-08-05T04:12:31.563Z,21.40
2022-08-05T04:15:36.851Z,21.40
2022-08-05T04:18:41.671Z,21.40
2022-08-05T04:22:09.390Z,21.40
2022-08-05T04:25:12.951Z,21.48
2022-08-05T04:28:20.880Z,21.50
2022-08-05T04:31:38.509Z,21.52
2022-08-05T04:34:43.468Z,21.60
2022-08-05T04:38:02.493Z,21.70
2022-08-05T04:41:11.107Z,21.90
2022-08-05T04:44:21.038Z,22.10
2022-08-05T04:47:29.633Z,22.30
2022-08-05T04:51:02.812Z,22.50
2022-08-05T04:54:10.540Z,22.70
2022-08-05T04:57:17.052Z,22.88
2022-08-05T05:00:23.495Z,23.00
2022-08-05T05:03:41.958Z,23.20
2022-08-05T05:06:52.006Z,23.36
2022-08-05T05:10:05.080Z,23.50
2022-08-05T05:13:10.691Z,23.60
2022-08-05T05:16:19.813Z,23.80
2022-08-05T05:19:27.437Z,23.90
2022-08-05T05:22:44.051Z,24.00
2022-08-05T05:25:49.063Z,24.10
2022-08-05T05:28:53.650Z,24.22
2022-08-05T05:32:01.642Z,24.36
2022-08-05T05:35:10.305Z,24.48
2022-08-05T05:38:27.425Z,24.56
2022-08-05T05:41:40.614Z,24.70
2022-08-05T05:44:47.059Z,24.80
2022-08-05T05:48:06.724Z,24.90
2022-08-05T05:51:17.621Z,25.00
2022-08-05T05:54:22.171Z,25.10
2022-08-05T05:57:52.661Z,25.20
2022-08-05T06:01:02.427Z,25.30
2022-08-05T06:04:17.872Z,25.40
2022-08-05T06:07:41.529Z,25.50
2022-08-05T06:10:52.630Z,25.70
2022-08-05T06:13:57.991Z,25.80
2022-08-05T06:17:22.672Z,26.00
2022-08-05T06:20:30.256Z,26.10
2022-08-05T06:23:44.089Z,26.20
2022-08-05T06:26:52.192Z,26.40
2022-08-05T06:30:04.583Z,26.50
2022-08-05T06:33:33.270Z,26.60
2022-08-05T06:36:56.737Z,26.80
2022-08-05T06:40:03.773Z,26.98
2022-08-05T06:43:51.632Z,27.10
2022-08-05T06:46:33.173Z,27.30
2022-08-05T06:50:01.544Z,27.40
2022-08-05T06:53:19.539Z,27.60
2022-08-05T06:56:28.263Z,27.70
2022-08-05T06:59:38.601Z,27.80
2022-08-05T07:02:48.330Z,27.82
2022-08-05T07:05:59.097Z,28.00
2022-08-05T07:09:04.765Z,28.10
2022-08-05T07:12:31.170Z,28.26
2022-08-05T07:16:01.045Z,28.42
2022-08-05T07:19:09.020Z,28.60
2022-08-05T07:22:14.096Z,28.80
2022-08-05T07:25:54.320Z,28.90
2022-08-05T07:28:45.386Z,29.00
2022-08-05T07:31:54.424Z,29.10
2022-08-05T07:35:00.078Z,29.20
2022-08-05T07:38:33.824Z,29.24
2022-08-05T07:42:14.747Z,29.30
2022-08-05T07:45:09.393Z,29.40
2022-08-05T07:48:15.801Z,29.42
2022-08-05T07:51:53.077Z,29.52
2022-08-05T07:54:58.489Z,29.60
2022-08-05T07:58:03.952Z,29.60
2022-08-05T08:01:12.075Z,29.70
2022-08-05T08:04:17.200Z,29.90
2022-08-05T08:07:59.249Z,30.00
2022-08-05T08:11:03.960Z,30.20
2022-08-05T08:14:18.367Z,30.20
2022-08-05T08:17:24.555Z,30.30
2022-08-05T08:21:00.344Z,30.40
2022-08-05T08:24:01.378Z,30.50
2022-08-05T08:27:09.604Z,30.60
2022-08-05T08:30:19.660Z,30.60
2022-08-05T08:33:39.118Z,30.70
2022-08-05T08:36:49.943Z,30.80
2022-08-05T08:39:57.610Z,30.90
2022-08-05T08:44:55.737Z,31.00
2022-08-05T08:46:32.187Z,31.10
2022-08-05T08:50:14.162Z,31.20
2022-08-05T08:53:13.002Z,31.30
2022-08-05T08:56:20.410Z,31.40
2022-08-05T08:59:33.611Z,31.50
2022-08-05T09:02:39.774Z,31.60
2022-08-05T09:06:09.162Z,31.70
2022-08-05T09:09:09.788Z,31.80
2022-08-05T09:12:20.816Z,31.90
2022-08-05T09:15:32.529Z,31.90
2022-08-05T09:18:43.906Z,31.90
2022-08-05T09:22:22.719Z,32.04
2022-08-05T09:25:24.405Z,32.20
2022-08-05T09:28:48.092Z,32.30
2022-08-05T09:32:41.098Z,32.40
2022-08-05T09:35:32.719Z,32.60
2022-08-05T09:38:37.633Z,32.60
2022-08-05T09:42:00.316Z,32.70
2022-08-05T09:46:04.719Z,32.90
2022-08-05T09:48:38.524Z,33.10
2022-08-05T09:51:43.447Z,33.20
2022-08-05T09:55:06.177Z,33.30
2022-08-05T09:58:15.984Z,33.40
2022-08-05T10:01:31.865Z,33.40
2022-08-05T10:04:40.338Z,33.58
2022-08-05T10:08:36.010Z,33.76
2022-08-05T10:11:17.636Z,33.88
2022-08-05T10:14:27.795Z,34.00
2022-08-05T10:17:37.827Z,34.20
2022-08-05T10:20:49.160Z,34.30
2022-08-05T10:23:59.208Z,34.40
2022-08-05T10:27:07.611Z,34.50
2022-08-05T10:32:46.768Z,34.70
2022-08-05T10:33:38.099Z,34.78
2022-08-05T10:36:45.620Z,34.70
2022-08-05T10:39:59.526Z,34.98
2022-08-05T10:43:36.429Z,35.40
2022-08-05T10:46:50.629Z,35.90
2022-08-05T10:50:33.097Z,36.26
2022-08-05T10:53:42.554Z,36.50
2022-08-05T10:56:55.325Z,36.60
2022-08-05T11:00:18.627Z,36.40
2022-08-05T11:03:27.072Z,36.30
2022-08-05T11:06:32.881Z,36.20
2022-08-05T11:09:46.900Z,36.10
2022-08-05T11:12:54.862Z,36.00
2022-08-05T11:16:22.148Z,35.90
2022-08-05T11:20:11.054Z,36.00
2022-08-05T11:24:04.182Z,36.10
2022-08-05T11:27:50.160Z,36.10
2022-08-05T11:31:56.519Z,36.38
2022-08-05T11:34:59.090Z,36.54
2022-08-05T11:38:30.748Z,36.50
2022-08-05T11:41:56.170Z,36.60
2022-08-05T11:45:05.611Z,36.80
2022-08-05T11:48:19.063Z,37.04
2022-08-05T11:51:44.078Z,37.00
2022-08-05T11:54:55.066Z,36.92
2022-08-05T11:58:09.498Z,37.00
2022-08-05T12:01:20.254Z,37.20
2022-08-05T12:04:29.214Z,37.40
2022-08-05T12:08:08.932Z,37.40
2022-08-05T12:11:06.825Z,37.42
2022-08-05T12:14:10.779Z,37.60
2022-08-05T12:18:03.159Z,37.50
2022-08-05T12:20:42.277Z,37.40
2022-08-05T12:24:04.330Z,37.46
2022-08-05T12:27:21.513Z,37.78
2022-08-05T12:30:45.936Z,37.90
2022-08-05T12:33:51.526Z,37.90
2022-08-05T12:37:00.298Z,38.00
2022-08-05T12:40:11.621Z,38.28
2022-08-05T12:43:32.408Z,38.50
2022-08-05T12:46:38.847Z,38.70
2022-08-05T12:50:02.338Z,38.80
2022-08-05T12:53:16.667Z,39.00
2022-08-05T12:56:34.220Z,39.10
2022-08-05T13:01:57.040Z,39.06
2022-08-05T13:03:15.461Z,38.80
2022-08-05T13:06:20.238Z,38.80
2022-08-05T13:09:28.594Z,38.90
2022-08-05T13:12:42.536Z,38.86
2022-08-05T13:15:56.429Z,39.00
2022-08-05T13:19:03.588Z,39.10
2022-08-05T13:22:12.074Z,39.00
2022-08-05T13:25:22.249Z,39.14
2022-08-05T13:28:44.089Z,39.20
2022-08-05T13:32:03.753Z,39.20
2022-08-05T13:35:11.074Z,39.20
2022-08-05T13:38:28.369Z,39.24
2022-08-05T13:41:37.729Z,39.20
2022-08-05T13:44:45.502Z,39.00
2022-08-05T13:48:09.548Z,39.00
2022-08-05T13:51:15.458Z,39.00
2022-08-05T13:54:24.873Z,38.90
2022-08-05T13:57:50.573Z,38.70
2022-08-05T14:00:55.417Z,38.70
2022-08-05T14:04:18.324Z,38.70
2022-08-05T14:08:00.139Z,38.90
2022-08-05T14:10:51.604Z,39.00
2022-08-05T14:13:56.900Z,38.90
2022-08-05T14:17:02.864Z,38.90
2022-08-05T14:20:10.769Z,39.00
2022-08-05T14:23:25.489Z,38.80
2022-08-05T14:26:38.676Z,38.62
2022-08-05T14:29:51.440Z,38.60
2022-08-05T14:32:58.158Z,38.36
2022-08-05T14:36:03.435Z,38.24
2022-08-05T14:39:08.222Z,38.36
2022-08-05T14:42:20.788Z,38.42
2022-08-05T14:45:26.512Z,38.60
2022-08-05T14:48:33.304Z,38.72
2022-08-05T14:51:42.815Z,38.80
2022-08-05T14:54:53.143Z,38.80
2022-08-05T14:57:58.108Z,38.90
2022-08-05T15:01:03.422Z,38.82
2022-08-05T15:04:11.544Z,38.70
2022-08-05T15:08:09.094Z,38.60
2022-08-05T15:10:42.773Z,38.60
2022-08-05T15:13:50.443Z,38.50
2022-08-05T15:16:55.911Z,38.30
2022-08-05T15:20:00.752Z,38.20
2022-08-05T15:23:08.941Z,38.00
2022-08-05T15:26:14.976Z,37.90
2022-08-05T15:29:19.857Z,38.02
2022-08-05T15:32:28.869Z,38.10
2022-08-05T15:35:36.100Z,38.16
2022-08-05T15:38:42.118Z,38.20
2022-08-05T15:41:55.617Z,38.20
2022-08-05T15:45:02.340Z,37.94
2022-08-05T15:48:09.273Z,37.70
2022-08-05T15:51:22.023Z,37.60
2022-08-05T15:54:48.028Z,37.50
2022-08-05T15:57:54.265Z,37.16
2022-08-05T16:01:16.024Z,36.70
2022-08-05T16:04:25.755Z,36.28
2022-08-05T16:07:29.987Z,35.80
2022-08-05T16:10:35.369Z,35.50
2022-08-05T16:13:41.140Z,35.34
2022-08-05T16:16:46.689Z,35.30
2022-08-05T16:20:05.322Z,35.30
2022-08-05T16:23:16.282Z,35.20
2022-08-05T16:26:26.661Z,35.10
2022-08-05T16:29:37.339Z,35.00
2022-08-05T16:32:42.942Z,34.90
2022-08-05T16:35:52.905Z,34.80
2022-08-05T16:38:58.981Z,34.60
2022-08-05T16:42:14.592Z,34.44
2022-08-05T16:46:07.098Z,34.30
2022-08-05T16:48:47.713Z,34.20
2022-08-05T16:51:54.814Z,34.20
2022-08-05T16:55:01.831Z,34.10
2022-08-05T16:58:09.426Z,34.02
2022-08-05T17:01:14.403Z,34.00
2022-08-05T17:04:19.557Z,33.80
2022-08-05T17:07:31.985Z,33.70
2022-08-05T17:10:44.543Z,33.58
2022-08-05T17:13:49.174Z,33.40
2022-08-05T17:16:54.422Z,33.30
2022-08-05T17:20:00.310Z,33.20
2022-08-05T17:23:05.447Z,33.00
2022-08-05T17:26:10.046Z,32.90
2022-08-05T17:29:16.874Z,32.80
2022-08-05T17:32:21.590Z,32.60
2022-08-05T17:36:06.937Z,32.48
2022-08-05T17:38:54.586Z,32.30
2022-08-05T17:42:18.861Z,32.10
2022-08-05T17:45:38.150Z,31.90
2022-08-05T17:48:44.807Z,31.70
2022-08-05T17:51:52.121Z,31.60
2022-08-05T17:54:59.793Z,31.40
2022-08-05T17:58:04.571Z,31.24
2022-08-05T18:01:11.671Z,31.10
2022-08-05T18:04:21.090Z,30.90
2022-08-05T18:07:40.905Z,30.70
2022-08-05T18:10:47.360Z,30.60
2022-08-05T18:13:53.386Z,30.42
2022-08-05T18:16:57.981Z,30.30
2022-08-05T18:20:06.918Z,30.20
2022-08-05T18:23:19.499Z,30.00
2022-08-05T18:26:29.016Z,29.80
2022-08-05T18:29:40.859Z,29.60
2022-08-05T18:32:53.583Z,29.36
2022-08-05T18:36:11.866Z,29.10
2022-08-05T18:39:41.908Z,28.90
2022-08-05T18:42:45.129Z,28.70
2022-08-05T18:45:51.381Z,28.50
2022-08-05T18:49:22.847Z,28.40
2022-08-05T18:52:36.725Z,28.24
2022-08-05T18:55:41.488Z,28.16
2022-08-05T18:58:46.262Z,28.10
2022-08-05T19:01:57.180Z,28.00
2022-08-05T19:06:05.549Z,27.90
2022-08-05T19:08:31.321Z,27.80
2022-08-05T19:11:59.436Z,27.70
2022-08-05T19:15:02.936Z,27.60
2022-08-05T19:18:13.426Z,27.50
2022-08-05T19:21:27.732Z,27.40
2022-08-05T19:24:39.409Z,27.40
2022-08-05T19:28:01.513Z,27.30
2022-08-05T19:31:13.498Z,27.20
2022-08-05T19:34:18.886Z,27.20
2022-08-05T19:37:35.152Z,27.14
2022-08-05T19:40:48.925Z,27.10
2022-08-05T19:44:06.316Z,27.00
2022-08-05T19:47:12.301Z,26.90
2022-08-05T19:50:23.635Z,26.90
2022-08-05T19:54:04.002Z,26.80
2022-08-05T19:56:55.702Z,26.80
2022-08-05T20:00:04.673Z,26.72
2022-08-05T20:03:11.696Z,26.70
2022-08-05T20:06:29.138Z,26.70
2022-08-05T20:09:54.909Z,26.70
2022-08-05T20:12:59.347Z,26.70
2022-08-05T20:16:04.651Z,26.70
2022-08-05T20:19:09.869Z,26.66
2022-08-05T20:22:15.407Z,26.60
2022-08-05T20:25:23.178Z,26.60
2022-08-05T20:28:28.667Z,26.50
2022-08-05T20:31:42.763Z,26.46
2022-08-05T20:34:57.347Z,26.40
2022-08-05T20:38:05.356Z,26.30
2022-08-05T20:41:17.621Z,26.20
2022-08-05T20:44:30.870Z,26.20
2022-08-05T20:47:40.105Z,26.10
2022-08-05T20:50:45.547Z,26.10
2022-08-05T20:53:55.225Z,26.00
2022-08-05T20:57:03.428Z,26.00
2022-08-05T21:00:36.385Z,26.00
2022-08-05T21:03:38.328Z,25.94
2022-08-05T21:06:53.527Z,25.90
2022-08-05T21:09:59.211Z,25.90
2022-08-05T21:13:11.037Z,25.84
2022-08-05T21:16:21.053Z,25.80
2022-08-05T21:19:28.393Z,25.78
2022-08-05T21:22:33.324Z,25.60
2022-08-05T21:25:43.831Z,25.60
2022-08-05T21:28:51.039Z,25.50
2022-08-05T21:31:56.052Z,25.30
2022-08-05T21:35:17.586Z,25.20
2022-08-05T21:38:23.270Z,25.10
2022-08-05T21:41:34.033Z,25.00
2022-08-05T21:44:39.897Z,24.90
2022-08-05T21:47:55.823Z,24.80
2022-08-05T21:51:02.088Z,24.80
2022-08-05T21:54:07.228Z,24.72
2022-08-05T22:00:40.099Z,24.70
2022-08-05T22:03:52.067Z,24.60
2022-08-05T22:06:58.463Z,24.70
2022-08-05T22:10:03.743Z,24.70
2022-08-05T22:14:05.538Z,24.70
2022-08-05T22:16:41.988Z,24.70
2022-08-05T22:20:00.358Z,24.72
2022-08-05T22:24:01.968Z,24.80
2022-08-05T22:27:22.126Z,24.80
2022-08-05T22:30:32.220Z,24.90
2022-08-05T22:33:57.386Z,24.90
2022-08-05T22:37:04.775Z,25.00
2022-08-05T22:40:16.763Z,25.10
2022-08-05T22:43:37.189Z,25.20
2022-08-05T22:46:42.626Z,25.30
2022-08-05T22:50:19.345Z,25.30
2022-08-05T22:53:15.919Z,25.36
2022-08-05T22:56:29.832Z,25.30
2022-08-05T22:59:45.400Z,25.30
2022-08-05T23:02:55.536Z,25.24
2022-08-05T23:06:00.300Z,25.20
2022-08-05T23:09:26.799Z,25.16
2022-08-05T23:12:32.461Z,25.10
2022-08-05T23:15:38.205Z,25.14
2022-08-05T23:18:44.394Z,25.16
2022-08-05T23:21:49.620Z,25.20
2022-08-05T23:24:55.035Z,25.20
2022-08-05T23:28:00.675Z,25.22
2022-08-05T23:31:16.991Z,25.22
2022-08-05T23:34:24.618Z,25.20
2022-08-05T23:37:36.566Z,25.20
2022-08-05T23:40:42.560Z,25.10
2022-08-05T23:44:06.492Z,25.00
2022-08-05T23:47:15.745Z,25.02
2022-08-05T23:50:21.027Z,25.08
2022-08-05T23:53:28.539Z,25.10
2022-08-05T23:56:51.249Z,25.10
